ADDS METAR Data INFO
IDs: Format: Raw Decoded Include TAF

Data at: 1046 UTC 19 Oct 2017

KCEW 190953Z AUTO 03003KT 10SM CLR 13/10 A3019 RMK AO2 SLP220 T01280100
KCEW 190853Z AUTO 04003KT 10SM CLR 12/11 A3018 RMK AO2 SLP216 T01220106 56009
KCEW 190753Z AUTO 00000KT 10SM CLR 12/11 A3018 RMK AO2 SLP219 T01220106
KCEW 190653Z AUTO 05003KT 10SM CLR 14/11 A3020 RMK AO2 SLP222 T01390111
KCEW 190553Z AUTO 00000KT 10SM CLR 14/11 A3020 RMK AO2 SLP226 T01390111 10167 20133 402610067 58006
KCEW 190453Z AUTO 00000KT 10SM CLR 14/12 A3022 RMK AO2 SLP229 T01390117
KCEW 190353Z AUTO 00000KT 10SM CLR 14/12 A3023 RMK AO2 SLP235 T01390122
KCEW 190253Z AUTO 06003KT 10SM CLR 16/13 A3022 RMK AO2 SLP233 T01560128 51010
KCEW 190153Z AUTO 04004KT 10SM CLR 17/13 A3021 RMK AO2 SLP229 T01670133
KCEW 190053Z AUTO 02003KT 10SM CLR 16/14 A3021 RMK AO2 SLP228 T01560139
KCEW 182353Z AUTO 02003KT 10SM CLR 17/14 A3019 RMK AO2 SLP222 T01720144 10261 20172 53007
KCEW 182253Z AUTO 00000KT 10SM CLR 22/14 A3018 RMK AO2 SLP216 T02170144
KCEW 182153Z AUTO 07004KT 10SM CLR 24/13 A3017 RMK AO2 SLP216 T02440128
KCEW 182053Z AUTO 07003KT 10SM CLR 26/13 A3017 RMK AO2 SLP215 T02560128 56014
KCEW 181953Z AUTO 07007KT 040V110 10SM CLR 26/12 A3018 RMK AO2 SLP218 T02560122
KCEW 181853Z AUTO 03007KT 10SM CLR 26/13 A3019 RMK AO2 SLP222 T02560128
KCEW 181753Z AUTO 08009KT 10SM CLR 24/13 A3021 RMK AO2 SLP229 T02390128 10244 20078 58019
KCEW 181653Z AUTO 07008KT 10SM CLR 23/12 A3024 RMK AO2 SLP238 T02280117
KCEW 181553Z AUTO VRB05KT 10SM CLR 20/11 A3026 RMK AO2 SLP246 T02000106
KCEW 181453Z AUTO 05007KT 10SM CLR 17/09 A3027 RMK AO2 SLP249 T01720089 51014
KCEW 181353Z AUTO 08007KT 10SM CLR 14/08 A3027 RMK AO2 SLP247 T01390083
KCEW 181253Z AUTO 00000KT 10SM CLR 11/07 A3025 RMK AO2 SLP243 T01110072
KCEW 181153Z AUTO 05003KT 10SM CLR 08/06 A3023 RMK AO2 SLP235 T00780061 10094 20067 52008
KCEW 181053Z AUTO 00000KT 10SM CLR 07/05 A3022 RMK AO2 SLP233 T00670050
KCEW 180953Z AUTO 00000KT 8SM CLR 07/06 A3021 RMK AO2 SLP229 T00720056
KCEW 180853Z AUTO 00000KT 10SM CLR 07/06 A3020 RMK AO2 SLP227 T00720061 55002
KCEW 180753Z AUTO 00000KT 10SM CLR 08/07 A3020 RMK AO2 SLP226 T00780067
KCEW 180653Z AUTO 00000KT 10SM CLR 08/07 A3020 RMK AO2 SLP226 T00830067
KCEW 180553Z AUTO 00000KT 10SM CLR 09/08 A3021 RMK AO2 SLP228 T00940078 10172 20094 402560094 58003
KCEW 180453Z AUTO 06003KT 10SM CLR 09/08 A3021 RMK AO2 SLP230 T00940083
KCEW 180353Z AUTO 04003KT 10SM CLR 10/09 A3022 RMK AO2 SLP231 T01000089
KCEW 180253Z AUTO 00000KT 10SM CLR 11/10 A3022 RMK AO2 SLP232 T01110100 52013
KCEW 180153Z AUTO 00000KT 10SM CLR 13/11 A3021 RMK AO2 SLP227 T01280106
KCEW 180053Z AUTO 05003KT 10SM CLR 15/11 A3020 RMK AO2 SLP224 T01500111
KCEW 172353Z AUTO 02004KT 10SM CLR 17/11 A3018 RMK AO2 SLP219 T01720111 10256 20172 53015
KCEW 172253Z AUTO 03005KT 10SM CLR 21/11 A3016 RMK AO2 SLP211 T02110106